createdAt,value
2022-08-12T00:01:13.114Z,18.56
2022-08-12T00:04:26.210Z,18.56
2022-08-12T00:07:13.738Z,18.42
2022-08-12T00:10:00.246Z,18.26
2022-08-12T00:12:46.168Z,18.29
2022-08-12T00:15:34.558Z,18.24
2022-08-12T00:18:21.451Z,18.30
2022-08-12T00:21:08.633Z,18.14
2022-08-12T00:23:54.926Z,18.30
2022-08-12T00:26:42.139Z,18.17
2022-08-12T00:29:28.985Z,18.18
2022-08-12T00:32:35.388Z,18.26
2022-08-12T00:35:20.616Z,18.17
2022-08-12T00:38:11.573Z,18.25
2022-08-12T00:41:00.356Z,18.07
2022-08-12T00:43:30.191Z,18.14
2022-08-12T00:46:16.136Z,18.12
2022-08-12T00:48:44.452Z,18.07
2022-08-12T00:51:12.689Z,17.92
2022-08-12T00:53:42.493Z,17.92
2022-08-12T00:56:10.965Z,17.84
2022-08-12T00:58:46.970Z,17.97
2022-08-12T01:01:17.502Z,17.72
2022-08-12T01:04:08.833Z,17.89
2022-08-12T01:07:10.245Z,17.86
2022-08-12T01:09:57.971Z,17.76
2022-08-12T01:12:28.051Z,17.74
2022-08-12T01:14:57.523Z,17.66
2022-08-12T01:17:27.100Z,17.58
2022-08-12T01:19:57.189Z,17.71
2022-08-12T01:22:31.886Z,17.62
2022-08-12T01:25:07.915Z,17.50
2022-08-12T01:27:41.793Z,17.52
2022-08-12T01:30:13.590Z,17.51
2022-08-12T01:32:43.404Z,17.44
2022-08-12T01:35:15.816Z,17.06
2022-08-12T01:37:50.110Z,17.31
2022-08-12T01:40:34.534Z,17.29
2022-08-12T01:43:09.087Z,17.31
2022-08-12T01:45:48.574Z,17.26
2022-08-12T01:48:26.557Z,17.23
2022-08-12T01:51:06.597Z,17.18
2022-08-12T01:53:52.536Z,17.19
2022-08-12T01:56:27.170Z,17.16
2022-08-12T01:59:16.885Z,17.14
2022-08-12T02:01:47.909Z,17.27
2022-08-12T02:04:50.521Z,17.18
2022-08-12T02:07:55.244Z,17.24
2022-08-12T02:10:53.698Z,17.22
2022-08-12T02:13:55.319Z,17.19
2022-08-12T02:16:37.961Z,17.14
2022-08-12T02:19:28.569Z,17.08
2022-08-12T02:22:15.354Z,17.21
2022-08-12T02:24:47.494Z,17.02
2022-08-12T02:27:18.817Z,17.10
2022-08-12T02:29:49.290Z,16.89
2022-08-12T02:32:17.671Z,16.93
2022-08-12T02:34:46.585Z,16.90
2022-08-12T02:37:16.882Z,16.82
2022-08-12T02:39:50.354Z,16.89
2022-08-12T02:42:22.218Z,16.88
2022-08-12T02:44:56.845Z,16.64
2022-08-12T02:47:58.869Z,17.55
2022-08-12T02:50:20.454Z,16.75
2022-08-12T02:52:51.872Z,16.66
2022-08-12T02:55:28.647Z,16.44
2022-08-12T02:58:12.490Z,16.38
2022-08-12T03:00:45.761Z,16.31
2022-08-12T03:03:16.319Z,16.14
2022-08-12T03:05:52.819Z,16.11
2022-08-12T03:08:32.567Z,16.01
2022-08-12T03:11:09.545Z,15.94
2022-08-12T03:13:47.269Z,15.87
2022-08-12T03:16:17.723Z,15.92
2022-08-12T03:18:46.837Z,15.79
2022-08-12T03:21:52.843Z,15.71
2022-08-12T03:24:09.277Z,15.57
2022-08-12T03:26:38.920Z,15.27
2022-08-12T03:29:08.477Z,14.38
2022-08-12T03:31:38.172Z,14.95
2022-08-12T03:34:09.531Z,14.87
2022-08-12T03:36:40.119Z,14.88
2022-08-12T03:39:35.620Z,14.71
2022-08-12T03:42:22.580Z,14.58
2022-08-12T03:45:18.190Z,14.51
2022-08-12T03:48:13.431Z,14.59
2022-08-12T03:51:06.279Z,14.71
2022-08-12T03:53:52.324Z,14.63
2022-08-12T03:56:38.656Z,14.63
2022-08-12T03:59:25.991Z,14.62
2022-08-12T04:01:57.467Z,14.56
2022-08-12T04:04:36.946Z,14.43
2022-08-12T04:07:08.819Z,14.51
2022-08-12T04:09:40.211Z,14.58
2022-08-12T04:12:29.925Z,14.50
2022-08-12T04:15:02.839Z,14.46
2022-08-12T04:17:32.690Z,14.53
2022-08-12T04:20:02.871Z,14.49
2022-08-12T04:22:31.301Z,13.86
2022-08-12T04:25:02.060Z,14.60
2022-08-12T04:27:32.442Z,14.35
2022-08-12T04:30:16.933Z,14.39
2022-08-12T04:32:52.200Z,14.39
2022-08-12T04:35:24.080Z,14.36
2022-08-12T04:37:57.924Z,14.48
2022-08-12T04:40:32.449Z,14.42
2022-08-12T04:43:02.177Z,14.38
2022-08-12T04:45:31.304Z,14.32
2022-08-12T04:48:01.903Z,14.51
2022-08-12T04:50:36.887Z,14.55
2022-08-12T04:53:09.273Z,14.55
2022-08-12T04:55:39.433Z,14.53
2022-08-12T04:58:07.949Z,14.41
2022-08-12T05:00:37.856Z,14.48
2022-08-12T05:03:06.408Z,14.31
2022-08-12T05:05:37.137Z,14.42
2022-08-12T05:08:06.918Z,14.58
2022-08-12T05:10:35.833Z,14.66
2022-08-12T05:13:09.291Z,13.77
2022-08-12T05:16:00.208Z,14.83
2022-08-12T05:18:29.634Z,14.63
2022-08-12T05:21:00.436Z,15.02
2022-08-12T05:23:54.963Z,15.03
2022-08-12T05:26:23.803Z,15.19
2022-08-12T05:28:54.133Z,14.57
2022-08-12T05:31:40.412Z,15.34
2022-08-12T05:34:14.760Z,15.55
2022-08-12T05:36:45.017Z,15.78
2022-08-12T05:39:13.365Z,15.79
2022-08-12T05:41:41.681Z,15.99
2022-08-12T05:44:13.511Z,16.08
2022-08-12T05:46:42.195Z,16.19
2022-08-12T05:49:10.673Z,16.31
2022-08-12T05:51:41.700Z,16.30
2022-08-12T05:54:13.041Z,16.51
2022-08-12T05:56:41.967Z,16.71
2022-08-12T05:59:12.326Z,16.82
2022-08-12T06:02:09.254Z,17.16
2022-08-12T06:04:33.266Z,17.29
2022-08-12T06:07:02.730Z,17.48
2022-08-12T06:09:52.321Z,17.54
2022-08-12T06:12:23.330Z,17.86
2022-08-12T06:14:51.532Z,18.74
2022-08-12T06:17:19.750Z,18.12
2022-08-12T06:20:27.398Z,18.20
2022-08-12T06:22:37.414Z,18.40
2022-08-12T06:25:08.183Z,18.37
2022-08-12T06:28:06.768Z,18.69
2022-08-12T06:30:38.953Z,19.10
2022-08-12T06:33:23.052Z,19.32
2022-08-12T06:35:57.565Z,19.47
2022-08-12T06:38:30.278Z,19.47
2022-08-12T06:41:19.604Z,19.67
2022-08-12T06:44:06.658Z,19.84
2022-08-12T06:46:38.920Z,19.98
2022-08-12T06:49:08.603Z,19.71
2022-08-12T06:51:36.847Z,20.45
2022-08-12T06:54:05.477Z,20.06
2022-08-12T06:59:24.873Z,20.13
2022-08-12T07:01:54.987Z,21.00
2022-08-12T07:04:36.165Z,20.92
2022-08-12T07:07:06.908Z,21.30
2022-08-12T07:10:01.582Z,21.23
2022-08-12T07:12:28.087Z,21.23
2022-08-12T07:14:57.748Z,21.61
2022-08-12T07:17:26.344Z,21.65
2022-08-12T07:19:57.056Z,21.98
2022-08-12T07:22:28.817Z,21.79
2022-08-12T07:25:10.975Z,21.90
2022-08-12T07:27:42.729Z,22.02
2022-08-12T07:30:12.514Z,22.35
2022-08-12T07:32:41.386Z,22.50
2022-08-12T07:35:10.460Z,22.69
2022-08-12T07:37:42.335Z,22.91
2022-08-12T07:40:12.151Z,22.83
2022-08-12T07:42:44.103Z,22.86
2022-08-12T07:45:14.011Z,22.96
2022-08-12T07:47:43.821Z,23.10
2022-08-12T07:50:14.203Z,23.15
2022-08-12T07:52:46.992Z,23.12
2022-08-12T07:55:18.787Z,23.48
2022-08-12T07:57:55.966Z,23.47
2022-08-12T08:00:24.916Z,23.74
2022-08-12T08:02:56.853Z,23.77
2022-08-12T08:05:27.266Z,24.03
2022-08-12T08:08:01.752Z,23.89
2022-08-12T08:10:30.767Z,24.00
2022-08-12T08:13:05.059Z,24.20
2022-08-12T08:16:01.132Z,24.36
2022-08-12T08:18:26.550Z,24.39
2022-08-12T08:20:57.562Z,24.51
2022-08-12T08:23:56.439Z,24.66
2022-08-12T08:26:27.061Z,24.73
2022-08-12T08:28:56.976Z,24.76
2022-08-12T08:31:25.291Z,24.73
2022-08-12T08:34:09.501Z,24.75
2022-08-12T08:36:45.392Z,24.76
2022-08-12T08:39:17.005Z,24.79
2022-08-12T08:42:13.981Z,24.89
2022-08-12T08:44:49.801Z,24.83
2022-08-12T08:47:27.146Z,24.83
2022-08-12T08:50:00.947Z,24.81
2022-08-12T08:52:40.382Z,25.02
2022-08-12T08:55:10.810Z,25.24
2022-08-12T08:57:43.917Z,25.45
2022-08-12T09:00:19.420Z,25.38
2022-08-12T09:02:58.583Z,25.64
2022-08-12T09:05:43.170Z,25.80
2022-08-12T09:08:26.631Z,25.86
2022-08-12T09:14:10.736Z,25.78
2022-08-12T09:16:42.610Z,25.98
2022-08-12T09:19:27.696Z,26.03
2022-08-12T09:21:57.298Z,26.39
2022-08-12T09:24:28.645Z,26.36
2022-08-12T09:26:59.408Z,25.42
2022-08-12T09:30:11.054Z,25.80
2022-08-12T09:32:31.428Z,25.92
2022-08-12T09:35:21.866Z,25.90
2022-08-12T09:37:58.691Z,25.75
2022-08-12T09:41:01.590Z,26.08
2022-08-12T09:43:35.103Z,26.33
2022-08-12T09:46:06.848Z,26.27
2022-08-12T09:48:56.384Z,26.04
2022-08-12T09:51:37.976Z,26.06
2022-08-12T09:54:32.661Z,26.11
2022-08-12T09:58:08.024Z,26.27
2022-08-12T10:00:14.808Z,26.26
2022-08-12T10:03:01.853Z,26.05
2022-08-12T10:06:26.509Z,26.38
2022-08-12T10:08:52.117Z,26.35
2022-08-12T10:12:12.077Z,26.67
2022-08-12T10:14:34.365Z,26.62
2022-08-12T10:17:08.562Z,26.41
2022-08-12T10:19:40.169Z,26.28
2022-08-12T10:22:40.522Z,26.55
2022-08-12T10:26:35.588Z,26.75
2022-08-12T10:28:34.024Z,26.96
2022-08-12T10:31:05.246Z,26.37
2022-08-12T10:33:54.897Z,27.21
2022-08-12T10:36:36.274Z,26.61
2022-08-12T10:40:01.271Z,27.40
2022-08-12T10:42:29.040Z,27.35
2022-08-12T10:45:17.030Z,27.21
2022-08-12T10:48:14.949Z,27.18
2022-08-12T10:50:58.664Z,27.47
2022-08-12T10:53:45.421Z,27.67
2022-08-12T10:56:18.281Z,27.87
2022-08-12T10:58:47.642Z,28.08
2022-08-12T11:01:49.261Z,28.25
2022-08-12T11:04:23.264Z,28.05
2022-08-12T11:07:09.011Z,28.14
2022-08-12T11:10:01.051Z,28.08
2022-08-12T11:12:55.208Z,28.20
2022-08-12T11:15:24.180Z,28.36
2022-08-12T11:18:03.297Z,28.59
2022-08-12T11:20:31.714Z,28.64
2022-08-12T11:23:04.307Z,28.65
2022-08-12T11:25:58.105Z,27.87
2022-08-12T11:28:33.594Z,28.18
2022-08-12T11:31:04.711Z,28.15
2022-08-12T11:34:06.236Z,28.28
2022-08-12T11:36:22.356Z,28.06
2022-08-12T11:38:51.445Z,27.86
2022-08-12T11:41:31.410Z,27.74
2022-08-12T11:44:36.169Z,27.44
2022-08-12T11:46:53.297Z,27.11
2022-08-12T11:49:31.668Z,27.21
2022-08-12T11:52:02.449Z,27.69
2022-08-12T11:54:31.581Z,27.69
2022-08-12T11:57:02.106Z,27.68
2022-08-12T12:02:21.928Z,27.73
2022-08-12T12:04:52.704Z,28.08
2022-08-12T12:07:34.050Z,28.18
2022-08-12T12:10:13.783Z,28.23
2022-08-12T12:12:50.021Z,28.29
2022-08-12T12:15:24.830Z,28.32
2022-08-12T12:18:05.752Z,28.75
2022-08-12T12:20:36.262Z,29.15
2022-08-12T12:23:04.774Z,29.42
2022-08-12T12:26:06.481Z,29.43
2022-08-12T12:28:37.189Z,29.63
2022-08-12T12:31:15.211Z,29.70
2022-08-12T12:33:58.747Z,29.22
2022-08-12T12:36:30.241Z,28.78
2022-08-12T12:39:00.522Z,29.16
2022-08-12T12:42:55.419Z,29.10
2022-08-12T12:45:28.439Z,28.75
2022-08-12T12:48:05.423Z,28.39
2022-08-12T12:50:45.570Z,28.28
2022-08-12T12:54:08.929Z,28.04
2022-08-12T12:56:17.063Z,28.12
2022-08-12T12:58:46.520Z,28.27
2022-08-12T13:01:27.833Z,28.03
2022-08-12T13:04:14.442Z,29.06
2022-08-12T13:06:45.593Z,28.91
2022-08-12T13:09:36.269Z,28.56
2022-08-12T13:12:08.994Z,28.60
2022-08-12T13:14:39.962Z,28.84
2022-08-12T13:17:14.658Z,29.18
2022-08-12T13:19:49.920Z,29.35
2022-08-12T13:22:23.865Z,28.73
2022-08-12T13:24:56.914Z,28.61
2022-08-12T13:27:34.372Z,29.50
2022-08-12T13:30:11.130Z,29.63
2022-08-12T13:32:42.408Z,29.38
2022-08-12T13:35:19.212Z,29.02
2022-08-12T13:37:55.085Z,28.74
2022-08-12T13:40:25.301Z,28.87
2022-08-12T13:42:57.973Z,29.47
2022-08-12T13:45:26.968Z,29.54
2022-08-12T13:48:00.470Z,29.95
2022-08-12T13:50:33.377Z,29.87
2022-08-12T13:53:23.212Z,29.93
2022-08-12T13:55:59.783Z,30.09
2022-08-12T13:58:32.948Z,29.82
2022-08-12T14:01:05.940Z,29.74
2022-08-12T14:03:51.329Z,30.02
2022-08-12T14:06:26.007Z,29.15
2022-08-12T14:08:59.604Z,29.81
2022-08-12T14:11:28.199Z,29.96
2022-08-12T14:14:04.587Z,29.16
2022-08-12T14:16:48.336Z,29.04
2022-08-12T14:19:22.645Z,29.35
2022-08-12T14:21:59.124Z,29.75
2022-08-12T14:24:35.061Z,30.00
2022-08-12T14:27:09.240Z,30.28
2022-08-12T14:30:04.131Z,30.62
2022-08-12T14:32:34.637Z,30.41
2022-08-12T14:35:06.515Z,30.33
2022-08-12T14:37:56.782Z,30.14
2022-08-12T14:40:28.545Z,29.75
2022-08-12T14:42:58.887Z,29.23
2022-08-12T14:45:45.560Z,28.87
2022-08-12T14:48:19.486Z,28.73
2022-08-12T14:52:07.917Z,28.67
2022-08-12T14:55:24.793Z,28.91
2022-08-12T14:57:01.457Z,29.01
2022-08-12T14:59:57.341Z,29.20
2022-08-12T15:02:28.472Z,29.52
2022-08-12T15:04:59.772Z,29.47
2022-08-12T15:07:33.474Z,29.15
2022-08-12T15:10:25.395Z,28.90
2022-08-12T15:13:07.318Z,29.10
2022-08-12T15:15:44.223Z,29.12
2022-08-12T15:18:21.736Z,28.61
2022-08-12T15:20:52.557Z,28.89
2022-08-12T15:23:24.221Z,28.78
2022-08-12T15:26:03.252Z,28.84
2022-08-12T15:28:35.021Z,28.42
2022-08-12T15:31:09.562Z,28.77
2022-08-12T15:33:57.389Z,28.80
2022-08-12T15:36:54.635Z,28.49
2022-08-12T15:39:16.455Z,29.16
2022-08-12T15:41:49.645Z,29.23
2022-08-12T15:44:42.060Z,29.09
2022-08-12T15:47:10.208Z,29.06
2022-08-12T15:49:54.306Z,29.09
2022-08-12T15:52:29.911Z,28.77
2022-08-12T15:55:05.118Z,28.60
2022-08-12T15:57:36.310Z,28.33
2022-08-12T16:00:09.480Z,28.21
2022-08-12T16:02:58.299Z,28.56
2022-08-12T16:06:11.027Z,28.47
2022-08-12T16:08:27.676Z,28.23
2022-08-12T16:10:56.885Z,28.53
2022-08-12T16:13:34.805Z,28.52
2022-08-12T16:16:22.490Z,28.42
2022-08-12T16:18:56.426Z,28.37
2022-08-12T16:21:51.964Z,28.42
2022-08-12T16:24:14.368Z,28.20
2022-08-12T16:26:45.059Z,28.20
2022-08-12T16:29:16.331Z,28.14
2022-08-12T16:31:45.327Z,28.11
2022-08-12T16:34:26.177Z,28.01
2022-08-12T16:37:09.429Z,27.98
2022-08-12T16:39:59.666Z,28.07
2022-08-12T16:42:27.809Z,28.04
2022-08-12T16:45:02.249Z,28.13
2022-08-12T16:47:58.215Z,28.09
2022-08-12T16:50:31.373Z,28.13
2022-08-12T16:53:03.319Z,28.09
2022-08-12T16:55:41.770Z,28.01
2022-08-12T16:58:18.445Z,27.97
2022-08-12T17:00:58.118Z,27.87
2022-08-12T17:03:29.020Z,27.83
2022-08-12T17:05:58.948Z,27.47
2022-08-12T17:08:28.982Z,27.18
2022-08-12T17:10:58.068Z,27.02
2022-08-12T17:13:26.834Z,26.87
2022-08-12T17:16:05.501Z,26.79
2022-08-12T17:18:42.919Z,26.84
2022-08-12T17:21:17.407Z,26.61
2022-08-12T17:23:52.958Z,26.38
2022-08-12T17:26:28.379Z,26.11
2022-08-12T17:29:01.070Z,26.04
2022-08-12T17:32:01.124Z,25.96
2022-08-12T17:34:33.945Z,26.01
2022-08-12T17:37:05.482Z,25.88
2022-08-12T17:40:15.323Z,26.08
2022-08-12T17:42:34.830Z,25.94
2022-08-12T17:45:17.393Z,25.84
2022-08-12T17:48:04.843Z,25.86
2022-08-12T17:50:38.764Z,25.86
2022-08-12T17:53:10.094Z,25.91
2022-08-12T17:55:47.372Z,25.85
2022-08-12T17:58:37.014Z,26.04
2022-08-12T18:01:11.489Z,25.82
2022-08-12T18:04:05.537Z,25.80
2022-08-12T18:06:34.595Z,25.87
2022-08-12T18:09:08.532Z,25.91
2022-08-12T18:12:06.345Z,25.76
2022-08-12T18:14:37.046Z,25.77
2022-08-12T18:17:08.163Z,25.73
2022-08-12T18:20:06.047Z,25.51
2022-08-12T18:22:31.622Z,25.71
2022-08-12T18:25:04.739Z,25.42
2022-08-12T18:27:44.815Z,25.32
2022-08-12T18:30:28.933Z,25.27
2022-08-12T18:33:03.483Z,25.15
2022-08-12T18:35:53.483Z,25.06
2022-08-12T18:38:28.186Z,24.88
2022-08-12T18:41:17.540Z,24.83
2022-08-12T18:43:59.422Z,24.62
2022-08-12T18:46:53.320Z,24.54
2022-08-12T18:49:39.398Z,24.37
2022-08-12T18:52:11.901Z,24.35
2022-08-12T18:54:48.955Z,24.21
2022-08-12T18:58:06.441Z,23.92
2022-08-12T19:00:21.023Z,23.98
2022-08-12T19:02:53.116Z,23.92
2022-08-12T19:05:53.299Z,23.80
2022-08-12T19:08:14.297Z,23.80
2022-08-12T19:10:50.586Z,23.55
2022-08-12T19:13:38.982Z,23.41
2022-08-12T19:16:11.357Z,23.32
2022-08-12T19:18:44.497Z,22.97
2022-08-12T19:21:16.997Z,22.64
2022-08-12T19:24:10.436Z,22.57
2022-08-12T19:26:42.473Z,22.51
2022-08-12T19:29:11.720Z,22.35
2022-08-12T19:31:58.932Z,22.23
2022-08-12T19:37:27.104Z,21.90
2022-08-12T19:40:08.930Z,21.59
2022-08-12T19:42:57.594Z,21.44
2022-08-12T19:45:42.022Z,21.11
2022-08-12T19:48:16.587Z,21.10
2022-08-12T19:50:50.411Z,20.99
2022-08-12T19:53:23.367Z,20.96
2022-08-12T19:55:54.317Z,20.94
2022-08-12T19:58:25.148Z,20.05
2022-08-12T20:00:55.475Z,20.82
2022-08-12T20:03:38.381Z,20.80
2022-08-12T20:06:18.346Z,20.82
2022-08-12T20:08:56.569Z,20.55
2022-08-12T20:12:09.690Z,20.49
2022-08-12T20:14:19.012Z,20.55
2022-08-12T20:16:56.373Z,20.29
2022-08-12T20:20:05.565Z,20.22
2022-08-12T20:22:24.335Z,20.16
2022-08-12T20:25:01.305Z,20.20
2022-08-12T20:28:03.123Z,20.00
2022-08-12T20:30:52.503Z,19.78
2022-08-12T20:33:17.629Z,18.82
2022-08-12T20:36:14.130Z,19.61
2022-08-12T20:38:42.132Z,19.50
2022-08-12T20:41:16.492Z,19.45
2022-08-12T20:43:49.309Z,19.36
2022-08-12T20:46:20.113Z,19.30
2022-08-12T20:48:54.539Z,19.41
2022-08-12T20:51:24.027Z,18.76
2022-08-12T20:53:59.680Z,19.44
2022-08-12T20:56:33.057Z,19.39
2022-08-12T20:59:05.956Z,19.45
2022-08-12T21:01:47.904Z,19.43
2022-08-12T21:04:36.571Z,19.34
2022-08-12T21:07:09.632Z,19.29
2022-08-12T21:09:43.883Z,19.39
2022-08-12T21:12:27.855Z,19.27
2022-08-12T21:15:23.037Z,19.36
2022-08-12T21:18:11.149Z,19.33
2022-08-12T21:20:52.442Z,19.47
2022-08-12T21:23:22.535Z,19.47
2022-08-12T21:25:52.584Z,19.24
2022-08-12T21:28:30.994Z,19.29
2022-08-12T21:32:34.301Z,19.19
2022-08-12T21:34:07.164Z,19.18
2022-08-12T21:36:43.309Z,19.31
2022-08-12T21:39:21.342Z,17.95
2022-08-12T21:41:52.741Z,19.36
2022-08-12T21:44:24.213Z,19.50
2022-08-12T21:47:20.871Z,19.70
2022-08-12T21:50:03.136Z,19.22
2022-08-12T21:52:37.002Z,19.52
2022-08-12T21:55:18.119Z,19.53
2022-08-12T21:57:54.025Z,19.51
2022-08-12T22:00:35.002Z,19.53
2022-08-12T22:04:04.219Z,19.48
2022-08-12T22:06:30.428Z,19.44
2022-08-12T22:09:16.519Z,19.46
2022-08-12T22:11:56.435Z,19.44
2022-08-12T22:14:29.211Z,19.37
2022-08-12T22:17:01.281Z,19.56
2022-08-12T22:19:35.096Z,19.39
2022-08-12T22:22:06.114Z,19.27
2022-08-12T22:24:34.745Z,19.43
2022-08-12T22:27:17.948Z,19.41
2022-08-12T22:30:15.938Z,19.41
2022-08-12T22:32:49.932Z,19.50
2022-08-12T22:35:56.262Z,19.43
2022-08-12T22:38:29.353Z,19.34
2022-08-12T22:41:01.838Z,19.26
2022-08-12T22:44:00.709Z,19.10
2022-08-12T22:46:53.104Z,19.01
2022-08-12T22:49:36.367Z,18.85
2022-08-12T22:52:08.449Z,18.65
2022-08-12T22:55:00.283Z,17.55
2022-08-12T22:57:49.390Z,18.58
2022-08-12T23:00:24.539Z,18.42
2022-08-12T23:03:03.387Z,18.58
2022-08-12T23:06:05.555Z,18.57
2022-08-12T23:08:30.000Z,18.44
2022-08-12T23:11:06.220Z,18.14
2022-08-12T23:13:55.395Z,18.48
2022-08-12T23:16:31.061Z,18.45
2022-08-12T23:19:10.704Z,18.40
2022-08-12T23:22:04.224Z,18.37
2022-08-12T23:24:56.260Z,18.11
2022-08-12T23:27:50.664Z,18.02
2022-08-12T23:30:30.954Z,17.96
2022-08-12T23:33:01.375Z,17.76
2022-08-12T23:36:02.961Z,18.06
2022-08-12T23:38:33.206Z,18.01
2022-08-12T23:41:04.286Z,17.95
2022-08-12T23:43:39.545Z,17.97
2022-08-12T23:46:11.019Z,18.01
2022-08-12T23:48:40.681Z,18.17
2022-08-12T23:51:23.690Z,17.94
2022-08-12T23:53:56.238Z,17.96
2022-08-12T23:56:26.446Z,17.74
2022-08-12T23:58:58.609Z,17.82
